Time;durP1;ratioP1;P1;durP2;ratioP2;P2;SDS_P1;SDS_P2;PMS_P1;PMS_P2;Temp;Humidity;BMP_temperature;BMP_pressure;BME280_temperature;BME280_humidity;BME280_pressure;Samples;Min_cycle;Max_cycle;Signal;HPM_P1;HPM_P2
2022/12/19 00:01:31;;;;;;;0.20;0.00;;;9.30;99.90;;;;;;20953155;28;20405;-77
2022/12/19 00:11:37;;;;;;;0.20;0.00;;;9.50;99.90;;;;;;20951538;28;20449;-77
2022/12/19 00:21:41;;;;;;;0.20;0.10;;;9.50;99.90;;;;;;20950274;28;20797;-77
2022/12/19 00:31:46;;;;;;;0.20;0.00;;;9.50;99.90;;;;;;20889636;28;20404;-75
2022/12/19 00:41:50;;;;;;;0.20;0.10;;;9.50;99.90;;;;;;20916956;28;20554;-75
2022/12/19 00:51:58;;;;;;;0.20;0.10;;;9.60;99.90;;;;;;20987984;28;20486;-75
2022/12/19 01:02:02;;;;;;;0.20;0.00;;;9.80;99.90;;;;;;20934998;28;20887;-75
2022/12/19 01:22:31;;;;;;;0.20;0.07;;;9.70;99.90;;;;;;20903210;28;20447;-75
2022/12/19 01:32:36;;;;;;;0.20;0.10;;;9.60;99.90;;;;;;20926558;28;20406;-77
2022/12/19 01:42:40;;;;;;;0.20;0.00;;;9.90;99.90;;;;;;20980602;28;20631;-75
2022/12/19 01:52:47;;;;;;;0.20;0.10;;;9.70;99.90;;;;;;20947113;28;20501;-75
2022/12/19 02:02:57;;;;;;;0.20;0.10;;;10.50;99.90;;;;;;20981533;28;20969;-75
2022/12/19 02:13:03;;;;;;;0.20;0.00;;;10.50;99.90;;;;;;20959679;28;20391;-77
2022/12/19 02:23:34;;;;;;;0.20;0.10;;;10.70;99.90;;;;;;20979809;28;20477;-77
2022/12/19 02:33:44;;;;;;;0.20;0.03;;;11.40;99.90;;;;;;20961049;28;20409;-77
2022/12/19 02:43:50;;;;;;;0.20;0.00;;;11.80;99.90;;;;;;20977829;28;20439;-78
2022/12/19 02:54:03;;;;;;;0.20;0.10;;;11.60;99.90;;;;;;20976056;28;20410;-76
2022/12/19 03:04:17;;;;;;;0.20;0.10;;;11.20;99.90;;;;;;20978928;28;20908;-78
2022/12/19 03:14:23;;;;;;;0.20;0.10;;;11.00;99.90;;;;;;20944540;28;20430;-76
2022/12/19 03:24:28;;;;;;;0.20;0.10;;;10.80;99.90;;;;;;20978221;28;20459;-75
2022/12/19 03:34:40;;;;;;;0.20;0.03;;;10.80;99.90;;;;;;20959460;28;20455;-78
2022/12/19 03:44:44;;;;;;;0.20;0.00;;;10.70;99.90;;;;;;20959743;28;20396;-78
2022/12/19 03:54:55;;;;;;;0.20;0.00;;;10.70;99.90;;;;;;20971786;28;20416;-78
2022/12/19 04:05:02;;;;;;;0.20;0.08;;;10.80;99.90;;;;;;20992827;28;20428;-79
2022/12/19 04:15:15;;;;;;;0.20;0.00;;;10.90;99.90;;;;;;20957107;28;20991;-77
2022/12/19 04:25:25;;;;;;;0.20;0.10;;;10.70;99.90;;;;;;20956573;28;20573;-76
2022/12/19 04:35:34;;;;;;;0.20;0.10;;;10.60;99.90;;;;;;20972121;28;20421;-76
2022/12/19 04:45:41;;;;;;;0.20;0.00;;;10.00;99.90;;;;;;20971182;28;20404;-78
2022/12/19 04:55:47;;;;;;;0.20;0.10;;;9.70;99.90;;;;;;20970462;28;20406;-78
2022/12/19 05:05:51;;;;;;;0.20;0.10;;;10.30;99.90;;;;;;20988678;28;20418;-77
2022/12/19 05:16:01;;;;;;;0.20;0.00;;;10.40;99.90;;;;;;20966837;28;20439;-78
2022/12/19 05:26:06;;;;;;;0.20;0.00;;;10.30;99.90;;;;;;20982946;28;20481;-75
2022/12/19 05:36:12;;;;;;;0.20;0.00;;;10.40;99.90;;;;;;20920368;28;20462;-75
2022/12/19 05:46:15;;;;;;;0.20;0.00;;;11.50;99.90;;;;;;20883449;28;20400;-76
2022/12/19 05:56:22;;;;;;;0.20;0.10;;;11.60;99.90;;;;;;20882085;28;20411;-74
2022/12/19 06:06:27;;;;;;;0.20;0.10;;;11.90;99.90;;;;;;20900575;28;20430;-76
2022/12/19 06:16:32;;;;;;;0.20;0.00;;;12.00;99.90;;;;;;20898536;28;20430;-77
2022/12/19 06:26:36;;;;;;;0.20;0.10;;;11.90;99.90;;;;;;20898806;28;20887;-78
2022/12/19 06:36:41;;;;;;;0.20;0.10;;;11.90;99.90;;;;;;20896372;28;20412;-75
2022/12/19 06:46:45;;;;;;;0.20;0.10;;;12.50;99.90;;;;;;20897301;28;20491;-74
2022/12/19 06:56:51;;;;;;;0.20;0.00;;;12.60;99.90;;;;;;20896252;28;20408;-78
2022/12/19 07:06:55;;;;;;;0.20;0.00;;;12.40;99.90;;;;;;20873259;28;20392;-75
2022/12/19 07:17:02;;;;;;;0.20;0.00;;;12.10;99.90;;;;;;20894347;28;20495;-76
2022/12/19 07:27:09;;;;;;;0.20;0.10;;;11.80;99.90;;;;;;20884525;28;20388;-74
2022/12/19 07:37:15;;;;;;;0.20;0.00;;;11.80;99.90;;;;;;20893742;28;20518;-73
2022/12/19 07:47:19;;;;;;;0.20;0.10;;;11.90;99.90;;;;;;20908168;28;20502;-76
2022/12/19 07:57:24;;;;;;;0.20;0.07;;;12.00;99.90;;;;;;20908133;28;20415;-72
2022/12/19 08:07:28;;;;;;;0.20;0.00;;;12.30;99.90;;;;;;20890086;28;20435;-73
2022/12/19 08:17:33;;;;;;;0.20;0.10;;;12.60;99.90;;;;;;20905686;28;20908;-75
2022/12/19 08:27:37;;;;;;;0.20;0.00;;;13.20;99.90;;;;;;20956170;28;20402;-78
2022/12/19 08:37:43;;;;;;;0.20;0.00;;;13.70;99.90;;;;;;20984868;28;20496;-76
2022/12/19 08:47:47;;;;;;;0.20;0.00;;;14.70;99.90;;;;;;20984948;28;20456;-77
2022/12/19 08:57:52;;;;;;;0.20;0.00;;;15.20;99.90;;;;;;20948490;28;20518;-76
2022/12/19 09:07:56;;;;;;;0.20;0.10;;;15.10;99.90;;;;;;20937546;28;20394;-73
2022/12/19 09:18:01;;;;;;;0.20;0.10;;;14.70;99.90;;;;;;20983554;28;20422;-74
2022/12/19 09:28:05;;;;;;;0.20;0.10;;;14.70;99.90;;;;;;20984723;28;20434;-74
2022/12/19 09:38:31;;;;;;;0.20;0.00;;;15.00;99.90;;;;;;20907121;28;20424;-72
2022/12/19 09:48:40;;;;;;;0.20;0.10;;;15.20;99.90;;;;;;20880814;28;20898;-77
2022/12/19 09:58:49;;;;;;;0.20;0.00;;;15.80;99.90;;;;;;20896214;28;20422;-73
2022/12/19 10:08:53;;;;;;;0.20;0.10;;;16.30;99.90;;;;;;20878195;28;20938;-74
2022/12/19 10:19:27;;;;;;;0.20;0.08;;;16.60;99.90;;;;;;20896031;28;20411;-73
2022/12/19 10:29:47;;;;;;;0.20;0.00;;;16.80;99.90;;;;;;20895701;28;20911;-67
